Latest Weather Observations for Low Rocky Point

IDT60801

Issued at 3:32 pm EST Saturday 23 September 2017 (issued every 30 minutes, with the page automatically refreshed every 10 minutes)

About weather observations | Map of weather stations | Latest weather observations for TAS | Other Formats
Station Details ID: 097080 Name: LOW ROCKY POINT Lat: -42.98 Lon: 145.50 Height: 34.0 m
Data from the previous 72 hours. | See also: Recent months at Low Rocky Point
Date/Time
EST
Temp
°C
App
Temp
°C
Dew
Point
°C
Rel
Hum
%
Delta-T
°C
Wind Press
QNH
hPa
Press
MSL
hPa
Rain since
9am
mm
Dir  Spd
km/h
Gust
km/h
Spd
kts
Gust
kts
23/03:30pm 13.2 11.3 13.0 99 0.1 NNE 15 22 8 12 987.5 987.5 2.4
23/03:00pm 13.3 11.0 13.1 99 0.1 NNE 17 22 9 12 987.6 987.6 1.4
23/02:30pm 13.4 10.2 13.2 99 0.1 N 22 28 12 15 988.9 988.9 0.6
23/02:00pm 13.5 11.3 13.3 99 0.1 N 17 24 9 13 989.5 989.4 0.4
23/01:30pm 13.0 10.6 12.8 99 0.1 NNW 17 22 9 12 990.6 990.6 0.4
23/01:00pm 14.0 12.7 13.8 99 0.1 NW 13 17 7 9 990.8 990.7 0.4
23/12:30pm 13.0 10.3 12.8 99 0.1 NNW 19 28 10 15 991.9 991.9 0.4
23/12:00pm 12.8 9.8 12.6 99 0.1 NW 20 26 11 14 992.7 992.7 0.4
23/11:30am 13.7 12.7 13.5 99 0.1 NW 11 17 6 9 992.9 992.9 0.4
23/11:00am 13.1 10.8 12.9 99 0.1 NNW 17 20 9 11 993.7 993.7 0.4
23/10:30am 12.7 9.7 12.5 99 0.1 NNW 20 28 11 15 994.8 994.8 0.4
23/10:00am 12.6 9.6 12.4 99 0.1 NNW 20 26 11 14 995.0 995.0 0.4
23/09:30am 12.4 10.2 12.2 99 0.1 NNW 15 22 8 12 995.6 995.6 0.4
23/09:00am 12.1 8.9 11.9 99 0.1 NNW 20 28 11 15 996.4 996.4 3.2
23/08:30am 12.0 10.1 11.8 99 0.1 N 13 15 7 8 996.2 996.2 3.2
23/08:00am 12.0 10.5 11.8 99 0.1 NNW 11 13 6 7 996.2 996.2 3.2
23/07:30am 12.0 10.9 11.8 99 0.1 NW 9 11 5 6 996.0 996.0 3.2
23/07:00am 11.6 10.7 11.4 99 0.1 N 7 11 4 6 995.9 995.9 3.2
23/06:30am 11.5 10.8 11.3 99 0.1 N 6 11 3 6 996.2 996.2 3.0
23/06:00am 11.6 12.0 11.4 99 0.1 CALM 0 0 0 0 995.7 995.7 3.0
23/05:30am 11.5 11.9 11.3 99 0.1 CALM 0 0 0 0 995.8 995.8 3.0
23/05:00am 11.4 10.1 11.2 99 0.1 WNW 9 11 5 6 995.7 995.7 3.0
23/04:30am 11.1 8.9 10.9 99 0.1 N 13 15 7 8 996.3 996.3 3.0
23/04:00am 11.1 10.1 10.9 99 0.1 N 7 11 4 6 996.1 996.1 3.0
23/03:30am 11.1 11.0 10.9 99 0.1 N 2 7 1 4 996.5 996.5 3.0
23/03:00am 10.8 7.2 10.6 99 0.1 NE 20 26 11 14 997.4 997.4 3.0
23/02:30am 10.5 7.0 10.3 99 0.1 NNE 19 24 10 13 998.1 998.1 3.0
23/02:00am 10.4 7.7 10.2 99 0.1 N 15 24 8 13 998.6 998.6 2.8
23/01:30am 10.2 7.8 10.1 99 0.1 NE 13 17 7 9 999.4 999.4 2.2
23/01:00am 10.0 7.5 9.7 98 0.2 NNE 13 17 7 9 1000.3 1000.3 1.8
23/12:30am 10.0 6.7 9.7 98 0.2 N 17 20 9 11 1000.5 1000.5 1.8
23/12:00am 9.8 6.8 9.2 96 0.3 NNE 15 20 8 11 1001.2 1001.2 1.8
 
Date/Time
EST
Temp
°C
App
Temp
°C
Dew
Point
°C
Rel
Hum
%
Delta-T
°C
Wind Press
QNH
hPa
Press
MSL
hPa
Rain since
9am
mm
Dir  Spd
km/h
Gust
km/h
Spd
kts
Gust
kts
22/11:30pm 10.1 6.2 9.3 95 0.4 N 20 24 11 13 1000.9 1000.9 1.2
22/11:00pm 10.5 6.6 9.6 94 0.5 N 20 30 11 16 1002.4 1002.4 0.0
22/10:30pm 10.3 6.0 9.4 94 0.4 NNE 22 30 12 16 1001.4 1001.4 0.0
22/10:00pm 10.6 6.4 9.8 95 0.4 N 22 33 12 18 1002.6 1002.6 0.0
22/09:30pm 10.7 6.5 9.9 95 0.4 N 22 32 12 17 1003.1 1003.1 0.0
22/09:00pm 10.3 6.0 9.5 95 0.4 N 22 30 12 16 1003.7 1003.7 0.0
22/08:30pm 10.0 6.0 8.9 93 0.5 NNE 20 26 11 14 1003.8 1003.8 0.0
22/08:00pm 10.0 6.8 8.4 90 0.8 NNE 15 20 8 11 1003.7 1003.7 0.0
22/07:30pm 11.2 6.9 9.3 88 1.0 NNW 22 30 12 16 1005.0 1005.1 0.0
22/07:00pm 11.8 7.2 9.5 86 1.2 NW 24 30 13 16 1005.3 1005.3 0.0
22/06:30pm 11.4 8.7 9.1 86 1.1 NW 13 15 7 8 1004.2 1004.2 0.0
22/06:00pm 11.0 7.9 8.8 86 1.1 N 15 19 8 10 1003.8 1003.8 0.0
22/05:30pm 11.7 8.0 9.3 85 1.2 NNW 19 24 10 13 1003.7 1003.7 0.0
22/05:00pm 11.8 7.1 9.2 84 1.3 NW 24 30 13 16 1004.2 1004.2 0.0
22/04:30pm 12.0 8.0 9.2 83 1.4 NW 20 24 11 13 1004.2 1004.2 0.0
22/04:00pm 12.3 7.6 9.3 82 1.5 NW 24 28 13 15 1004.6 1004.6 0.0
22/03:30pm 12.4 7.0 9.4 82 1.5 NW 28 32 15 17 1005.0 1005.1 0.0
22/03:00pm 13.0 7.6 9.6 80 1.7 NW 28 33 15 18 1005.2 1005.2 0.0
22/02:30pm 13.5 7.6 10.5 82 1.6 NW 32 35 17 19 1005.4 1005.5 0.0
22/02:00pm 12.8 6.4 9.3 79 1.8 NW 33 39 18 21 1005.5 1005.5 0.0
22/01:30pm 14.2 8.1 10.6 79 1.9 NW 33 39 18 21 1005.9 1006.0 0.0
22/01:00pm 14.0 7.8 10.0 77 2.1 NW 33 41 18 22 1006.2 1006.2 0.0
22/12:30pm 14.2 8.0 10.2 77 2.1 NW 33 41 18 22 1006.6 1006.7 0.0
22/12:00pm 14.0 7.8 10.2 78 2.0 NW 33 39 18 21 1006.9 1006.9 0.0
22/11:30am 13.2 7.4 9.6 79 1.8 NNW 30 37 16 20 1007.0 1007.1 0.0
22/11:00am 12.7 8.5 9.9 83 1.4 NNW 22 32 12 17 1007.3 1007.3 0.0
22/10:30am 13.1 8.2 9.9 81 1.6 NNW 26 35 14 19 1007.6 1007.7 0.0
22/10:00am 13.0 8.1 10.0 82 1.5 NNW 26 32 14 17 1007.6 1007.6 0.0
22/09:30am 12.2 6.1 9.6 84 1.3 NW 32 37 17 20 1007.7 1007.8 0.0
22/09:00am 12.2 6.8 9.6 84 1.3 NNW 28 39 15 21 1007.7 1007.7 1.6
22/08:30am 12.0 6.2 9.6 85 1.2 NW 30 35 16 19 1007.6 1007.7 1.6
22/08:00am 11.5 5.3 9.4 87 1.1 NW 32 39 17 21 1007.5 1007.5 1.6
22/07:30am 11.3 4.9 9.4 88 1.0 NW 33 41 18 22 1007.4 1007.5 1.6
22/07:00am 11.1 4.9 9.5 90 0.8 NW 32 37 17 20 1007.3 1007.3 1.6
22/06:30am 10.9 4.7 9.2 89 0.8 NW 32 41 17 22 1007.1 1007.2 1.6
22/06:00am 10.8 4.5 9.1 89 0.8 NW 32 43 17 23 1007.0 1007.0 1.6
22/05:30am 10.7 3.7 8.6 87 1.0 WNW 35 43 19 23 1006.9 1007.0 1.6
22/05:00am 10.8 2.8 8.9 88 0.9 WNW 41 48 22 26 1006.8 1006.8 1.6
22/04:30am 10.8 2.5 9.2 90 0.8 WNW 43 52 23 28 1006.6 1006.7 1.6
22/04:00am 10.7 2.9 9.6 93 0.6 NW 41 52 22 28 1006.1 1006.1 1.6
22/03:30am 10.7 2.9 9.9 95 0.4 NW 41 48 22 26 1006.1 1006.2 1.6
22/03:00am 10.1 2.6 9.5 96 0.3 NW 39 50 21 27 1006.0 1006.0 1.6
22/02:30am 9.9 2.7 9.1 95 0.4 NW 37 48 20 26 1006.1 1006.2 1.6
22/02:00am 10.6 2.7 9.4 92 0.6 NW 41 54 22 29 1006.4 1006.4 1.2
22/01:30am 10.9 2.7 9.8 93 0.6 NW 43 52 23 28 1006.6 1006.7 1.2
22/01:00am 10.8 3.1 10.0 95 0.4 NW 41 50 22 27 1006.6 1006.6 1.2
22/12:30am 10.7 3.3 9.9 95 0.4 NW 39 50 21 27 1006.6 1006.7 1.2
22/12:00am 10.8 3.1 10.0 95 0.4 NW 41 50 22 27 1006.3 1006.3 1.2
 
Date/Time
EST
Temp
°C
App
Temp
°C
Dew
Point
°C
Rel
Hum
%
Delta-T
°C
Wind Press
QNH
hPa
Press
MSL
hPa
Rain since
9am
mm
Dir  Spd
km/h
Gust
km/h
Spd
kts
Gust
kts
21/11:30pm 10.6 2.4 9.8 95 0.4 NW 43 56 23 30 1006.3 1006.4 1.2
21/11:00pm 10.7 1.6 9.8 94 0.5 NW 48 57 26 31 1006.5 1006.5 1.0
21/10:30pm 10.7 1.2 9.8 94 0.5 NW 50 61 27 33 1006.5 1006.6 1.0
21/10:00pm 11.0 3.2 9.8 92 0.6 NW 41 54 22 29 1006.5 1006.5 0.8
21/09:30pm 10.6 3.1 9.4 92 0.6 NW 39 50 21 27 1006.4 1006.5 0.8
21/09:00pm 11.4 3.1 9.5 88 1.0 NW 43 50 23 27 1006.4 1006.4 0.6
21/08:30pm 11.2 4.0 9.1 87 1.0 NW 37 46 20 25 1006.2 1006.3 0.6
21/08:00pm 11.1 3.9 9.0 87 1.0 NW 37 46 20 25 1006.0 1006.0 0.6
21/07:30pm 11.3 4.5 9.4 88 1.0 NW 35 46 19 25 1005.8 1005.9 0.6
21/07:00pm 11.2 4.0 9.3 88 1.0 NW 37 44 20 24 1005.4 1005.4 0.6
21/06:30pm 11.1 4.4 9.5 90 0.8 WNW 35 43 19 23 1005.0 1005.1 0.6
21/06:00pm 11.2 3.8 9.8 91 0.7 WNW 39 44 21 24 1004.5 1004.5 0.6
21/05:30pm 11.3 3.9 9.9 91 0.7 WNW 39 44 21 24 1004.0 1004.0 0.6
21/05:00pm 11.5 4.2 10.1 91 0.7 WNW 39 46 21 25 1003.4 1003.4 0.6
21/04:30pm 11.9 5.1 10.8 93 0.6 WNW 37 43 20 23 1003.1 1003.1 0.6
21/04:00pm 11.7 4.6 10.8 94 0.5 WNW 39 46 21 25 1002.7 1002.7 0.6
21/03:30pm 11.5 3.9 10.4 93 0.6 WNW 41 48 22 26 1002.3 1002.3 0.6
21/03:12pm 11.4 3.1 10.0 91 0.7 WNW 44 63 24 34 1001.9 1001.9 0.6
21/03:00pm 12.1 2.7 10.2 88 1.0 NW 50 65 27 35 1001.6 1001.6 0.6
21/02:30pm 12.7 1.9 9.2 79 1.8 NW 56 72 30 39 1001.3 1001.3 0.4
21/02:00pm 13.9 4.0 9.7 76 2.2 NNW 52 67 28 36 1001.1 1001.1 0.4
21/01:32pm 14.5 3.8 9.5 72 2.6 NNW 56 74 30 40 1000.8 1000.8 0.4
21/01:30pm 14.6 3.9 9.6 72 2.6 NNW 56 72 30 39 1000.8 1000.8 0.4
21/01:21pm 14.6 4.2 9.4 71 2.7 NNW 54 72 29 39 1000.7 1000.7 0.4
21/01:00pm 14.8 4.1 9.4 70 2.8 NNW 56 70 30 38 1000.9 1000.9 0.4
21/12:30pm 15.6 4.7 9.5 67 3.2 NNW 57 72 31 39 1000.9 1000.9 0.4
21/12:12pm 15.9 4.9 9.3 65 3.4 NNW 57 76 31 41 1000.9 1000.9 0.4
21/12:00pm 15.6 5.2 9.1 65 3.4 NNW 54 69 29 37 1001.0 1001.0 0.4
21/11:30am 16.8 8.5 11.3 70 3.0 NNW 46 70 25 38 1001.2 1001.2 0.4
21/11:00am 14.9 9.2 11.3 79 1.9 N 32 54 17 29 1001.4 1001.4 0.4
21/10:46am 13.8 6.7 11.0 83 1.5 N 39 57 21 31 1001.4 1001.4 0.4
21/10:30am 12.2 4.5 10.1 87 1.1 N 41 54 22 29 1001.7 1001.7 0.4
21/10:00am 11.8 4.3 9.5 86 1.2 N 39 57 21 31 1002.9 1002.9 0.2
21/09:41am 11.7 4.5 9.3 85 1.2 N 37 59 20 32 1003.5 1003.5 0.2
21/09:30am 11.8 4.2 9.2 84 1.3 N 39 52 21 28 1003.6 1003.6 0.0
21/09:00am 11.9 5.1 9.1 83 1.4 N 35 48 19 26 1004.0 1004.0 0.6
21/08:30am 11.9 4.9 8.6 80 1.6 N 35 54 19 29 1004.2 1004.2 0.4
21/08:04am 12.4 5.0 8.3 76 2.0 N 37 57 20 31 1004.3 1004.3 0.2
21/08:00am 12.6 5.2 8.3 75 2.1 N 37 52 20 28 1004.5 1004.5 0.2
21/07:43am 13.6 6.6 8.4 71 2.6 NNW 35 57 19 31 1004.7 1004.7 0.2
21/07:30am 13.9 7.9 8.7 71 2.6 NNW 30 41 16 22 1004.6 1004.6 0.2
21/07:00am 13.4 8.0 8.0 70 2.7 N 26 35 14 19 1004.7 1004.7 0.2
21/06:30am 12.8 7.3 7.7 71 2.5 N 26 37 14 20 1004.9 1004.9 0.2
21/06:00am 12.7 6.4 7.6 71 2.5 N 30 41 16 22 1004.9 1004.9 0.2
21/05:30am 12.4 6.9 7.5 72 2.4 N 26 39 14 21 1005.0 1005.1 0.2
21/05:00am 12.2 6.3 7.7 74 2.2 N 28 46 15 25 1005.2 1005.2 0.2
21/04:55am 12.2 6.3 7.7 74 2.2 N 28 46 15 25 1005.2 1005.3 0.2
21/04:30am 12.1 6.7 8.0 76 2.0 N 26 35 14 19 1005.5 1005.6 0.2
21/04:00am 12.0 5.5 8.1 77 1.9 N 32 48 17 26 1005.6 1005.6 0.2
21/03:30am 11.8 5.8 8.5 80 1.6 N 30 43 16 23 1005.9 1006.0 0.2
21/03:01am 12.1 6.5 8.9 81 1.6 N 28 48 15 26 1006.8 1006.9 0.2
21/03:00am 12.0 6.4 8.8 81 1.6 N 28 41 15 22 1006.9 1006.9 0.2
21/02:30am 11.9 6.7 8.9 82 1.5 N 26 39 14 21 1007.0 1007.1 0.2
21/02:00am 12.5 6.4 9.7 83 1.4 NNW 32 48 17 26 1007.8 1007.8 0.2
21/01:30am 11.6 5.9 9.9 89 0.9 N 30 41 16 22 1008.4 1008.5 0.2
21/01:00am 10.7 6.8 9.3 91 0.7 N 20 28 11 15 1008.7 1008.7 0.2
21/12:30am 10.6 5.2 9.4 92 0.6 N 28 43 15 23 1008.7 1008.8 0.2
21/12:00am 10.4 4.9 9.2 92 0.6 N 28 41 15 22 1009.3 1009.3 0.2
 
Date/Time
EST
Temp
°C
App
Temp
°C
Dew
Point
°C
Rel
Hum
%
Delta-T
°C
Wind Press
QNH
hPa
Press
MSL
hPa
Rain since
9am
mm
Dir  Spd
km/h
Gust
km/h
Spd
kts
Gust
kts
20/11:30pm 10.8 5.8 9.6 92 0.6 N 26 37 14 20 1009.9 1010.0 0.2
20/11:00pm 11.1 5.0 9.9 92 0.6 NNW 32 46 17 25 1010.4 1010.4 0.2
20/10:30pm 10.9 5.6 9.8 93 0.6 N 28 35 15 19 1011.2 1011.3 0.2
20/10:00pm 11.1 4.9 9.9 92 0.6 N 33 52 18 28 1011.1 1011.1 0.2
20/09:59pm 11.0 4.7 9.8 92 0.6 NNW 33 52 18 28 1011.1 1011.2 0.2
20/09:30pm 11.1 4.9 10.0 93 0.6 NNW 33 48 18 26 1011.4 1011.5 0.2
20/09:06pm 10.9 4.9 10.0 94 0.5 NNW 32 50 17 27 1011.4 1011.5 0.2
20/09:00pm 10.9 4.7 10.0 94 0.5 NNW 33 46 18 25 1011.5 1011.5 0.2
20/08:30pm 10.7 5.1 10.1 96 0.3 NNW 30 43 16 23 1011.4 1011.5 0.2
20/08:00pm 10.2 4.9 9.9 98 0.2 N 28 39 15 21 1010.5 1010.5 0.2
20/07:30pm 10.2 4.5 9.9 98 0.2 N 30 43 16 23 1010.8 1010.9 0.2
20/07:00pm 10.5 5.3 10.2 98 0.2 NNW 28 37 15 20 1011.2 1011.2 0.2
20/06:30pm 10.6 5.7 10.1 97 0.3 N 26 37 14 20 1010.8 1010.9 0.0
20/06:03pm 10.8 4.8 10.2 96 0.3 NNW 32 50 17 27 1011.0 1011.1 0.0
20/06:00pm 10.9 4.8 10.3 96 0.3 NNW 33 50 18 27 1011.0 1011.0 0.0
20/05:30pm 11.0 3.3 10.1 94 0.5 NNW 41 56 22 30 1011.5 1011.6 0.0
20/05:04pm 11.1 2.3 9.4 89 0.9 NNW 46 65 25 35 1011.9 1012.0 0.0
20/05:00pm 11.2 1.6 9.3 88 1.0 NNW 50 65 27 35 1011.8 1011.8 0.0
20/04:30pm 12.1 4.1 9.1 82 1.5 NNW 41 59 22 32 1011.7 1011.8 0.0
20/04:00pm 12.0 4.8 9.0 82 1.5 NNW 37 52 20 28 1011.1 1011.1 0.0

Other Formats:

Comma delimited format used in spreadsheet applications
http://www.bom.gov.au/fwo/IDT60801/IDT60801.95961.axf

JavaScript Object Notation format (JSON) in row-major order
http://www.bom.gov.au/fwo/IDT60801/IDT60801.95961.json